AirNav   Air Wisconsin pilot careers
 
 289 users online  

2H5 Houston Fort Bend Airport
Houston, Texas, USA

GOING TO HOUSTON?


FAA INFORMATION EFFECTIVE 09 NOVEMBER 2017

Location

FAA Identifier: 2H5
Lat/Long: 29-29-57.0000N / 095-53-54.2000W
29-29.950000N / 095-53.903333W
29.4991667 / -95.8983889
(estimated)
Elevation: 105 ft. / 32 m (estimated)
From city: 33 miles SW of HOUSTON, TX
Time zone: UTC -6 (UTC -5 during Daylight Saving Time)
Zip code: 77471

Airport Operations

Airport use: Open to the public
Activation date: 01/2003
Control tower: no
ARTCC: HOUSTON CENTER
FSS: MONTGOMERY COUNTY FLIGHT SERVICE STATION
NOTAMs facility: CXO (NOTAM-D service available)
Attendance: UNATNDD
Segmented circle: no

Airport Communications

CTAF: 122.9
WX ASOS at SGR (15 nm NE): 118.125 (281-242-7605)
WX AWOS-3 at TME (18 nm N): 119.525 (281-945-5451)
WX AWOS-3 at ARM (20 nm SW): 118.475 (979-532-2791)

Nearby radio navigation aids

VOR radial/distance  VOR name  Freq  Var
ELAr106/23.9EAGLE LAKE VOR/DME116.4008E
HUBr249/33.8HOBBY VOR/DME117.1005E
IAHr221/39.8HUMBLE VORTAC116.6005E

 
NDB name  Hdg/Dist  Freq  Var  ID
WHARTON036/19.824506EARM .- .-. --

Airport Services

Runway Information

Runway 17/35

Dimensions: 4400 x 100 ft. / 1341 x 30 m
Surface: turf, in fair condition
RUNWAY 17  RUNWAY 35
Latitude: 29-30.301180N29-29.597737N
Longitude: 095-54.007015W095-53.801127W
Elevation: 100.0 ft.105.0 ft.
Traffic pattern: leftleft
Runway heading: 166 true346 true
Obstructions: 4 ft. fence, 72 ft. left of centerline37 ft. pline, 750 ft. from runway, 20:1 slope to clear

Airport Ownership and Management from official FAA records

Ownership: Privately-owned
Owner: JOHN D. HULL, JR & MARY HULL
7811 DASHWOOD
HOUSTON, TX 77036
Phone 713-772-0083
Manager: JOHN HULL, JR
7811 DASHWOOD
HOUSTON, TX 77036
Phone 713-772-0083

Airport Operational Statistics

Aircraft operations: avg 50/month *
100% transient general aviation
* for 12-month period ending 31 December 2016

Additional Remarks

NO WINDSOCK.
ARPT HAS PERIMETER FENCE, GATES LOCKED. CTC AMGR FOR ACCESS.
FOR CD CTC HOUSTON APCH AT 281-443-5844 TO CNL IFR CALL 281-443-5888.

Instrument Procedures

There are no published instrument procedures at 2H5.

Some nearby airports with instrument procedures:

KSGR - Sugar Land Regional Airport (15 nm NE)
KTME - Houston Executive Airport (18 nm N)
KARM - Wharton Regional Airport (20 nm SW)
KAXH - Houston Southwest Airport (22 nm E)
KIWS - West Houston Airport (22 nm NE)
 
Loc | Ops | Rwys | IFR | FBO | Links
Com | Nav | Svcs | Stats | Notes


 
Area around 2H5 (Houston Fort Bend Airport)
 
Road maps at: MapQuest Bing Google
 
Aerial photo
WARNING: Photo may not be current or correct
Aerial photo of 2H5 (Houston Fort Bend Airport)
Photo by John Parker P.E.
Photo taken 12-Jan-2008

Do you have a better or more recent aerial photo of Houston Fort Bend Airport that you would like to share? If so, please send us your photo.

 
Sectional chart

 
Airport distance calculator
Flying to Houston Fort Bend Airport? Find the distance to fly.

From to 2H5

Sunrise and sunset
Times for 22-Nov-2017
 Local
(UTC-6)
 Zulu
(UTC)
Morning civil twilight06:2912:29
Sunrise06:5512:55
Sunset17:2523:25
Evening civil twilight17:5023:50

Current date and time
Zulu (UTC)  22-Nov-2017 09:07:02
Local (UTC-6)  22-Nov-2017 03:07:02
 
METAR
KSGR 
15nm NE 
220853Z AUTO 01011KT 10SM SCT027 BKN037 OVC047 17/13 A3010 RMK AO2 SLP193 T01720133 53016
KTME 
18nm N 
220855Z AUTO 02011KT 10SM FEW017 BKN028 OVC035 15/13 A3013 RMK AO2
KARM 
20nm SW 
220855Z AUTO 02011G15KT 10SM OVC013 17/14 A3011 RMK AO2 T01660137
KAXH 
22nm E 
220855Z AUTO 03008KT 10SM OVC027 15/13 A3010 RMK AO2 T01530126
KELA 
23nm W 
220855Z AUTO 02010KT 10SM OVC014 16/14 A3012 RMK AO2 T01610140
TAF
KSGR 
15nm NE 
220824Z 2208/2306 02013KT P6SM BKN025 BKN035 FM221200 01015G23KT P6SM FEW025 BKN045 FM221900 36013G18KT P6SM SCT250 FM230100 35007KT P6SM SKC
NOTAMs
Click for the latest NOTAMs
NOTAMs are issued by the DoD/FAA and will open in a separate window not controlled by AirNav.

 

 
 

Would you like to see your business listed on this page?

 If your business provides an interesting product or service to pilots, flight crews, aircraft, or users of the Houston Fort Bend Airport, you should consider listing it here.  To start the listing process, click on the button below
 
Add a business
 

Other Pages about Houston Fort Bend Airport

Update a link
 
Copyright © AirNav, LLC. All rights reserved. Privacy Policy  Contact